Time;durP1;ratioP1;P1;durP2;ratioP2;P2;SDS_P1;SDS_P2;PMS_P1;PMS_P2;Temp;Humidity;BMP_temperature;BMP_pressure;BME280_temperature;BME280_humidity;BME280_pressure;Samples;Min_cycle;Max_cycle;Signal;HPM_P1;HPM_P2
2022/11/22 00:00:51;;;;;;;0.60;0.60;;;9.80;99.90;;;;;;5076323;28;20217;-65
2022/11/22 00:03:19;;;;;;;0.50;0.50;;;9.80;99.90;;;;;;5077670;28;20294;-64
2022/11/22 00:05:46;;;;;;;0.53;0.53;;;9.80;99.90;;;;;;5074986;28;20274;-64
2022/11/22 00:08:12;;;;;;;0.40;0.40;;;9.90;99.90;;;;;;5083470;28;20239;-64
2022/11/22 00:10:39;;;;;;;0.53;0.53;;;9.90;99.90;;;;;;5080272;28;20290;-63
2022/11/22 00:13:07;;;;;;;0.50;0.50;;;9.90;99.90;;;;;;5072940;28;20223;-65
2022/11/22 00:15:34;;;;;;;0.50;0.33;;;9.90;99.90;;;;;;5072690;28;20218;-64
2022/11/22 00:18:01;;;;;;;0.50;0.50;;;9.90;99.90;;;;;;5073106;28;20295;-65
2022/11/22 00:20:28;;;;;;;0.40;0.40;;;9.90;99.90;;;;;;5075160;28;20205;-64
2022/11/22 00:22:56;;;;;;;0.47;0.47;;;10.00;99.90;;;;;;5074853;28;20276;-66
2022/11/22 00:25:23;;;;;;;0.50;0.50;;;10.00;99.90;;;;;;5073843;28;20620;-66
2022/11/22 00:27:50;;;;;;;0.40;0.40;;;10.00;99.90;;;;;;5073350;28;20227;-63
2022/11/22 00:30:18;;;;;;;0.70;0.70;;;9.90;99.90;;;;;;5073329;28;20203;-65
2022/11/22 00:32:45;;;;;;;1.40;0.60;;;10.00;99.90;;;;;;5072648;28;20250;-64
2022/11/22 00:35:12;;;;;;;0.50;0.50;;;10.10;99.90;;;;;;5071102;28;20203;-66
2022/11/22 00:37:39;;;;;;;0.70;0.60;;;10.10;99.90;;;;;;5072814;28;20214;-65
2022/11/22 00:40:07;;;;;;;0.67;0.50;;;10.10;99.90;;;;;;5072899;28;20199;-65
2022/11/22 00:42:34;;;;;;;0.87;0.80;;;10.20;99.90;;;;;;5072578;28;20229;-65
2022/11/22 00:45:01;;;;;;;0.53;0.53;;;10.20;99.90;;;;;;5072789;28;20286;-66
2022/11/22 00:47:29;;;;;;;0.70;0.70;;;10.30;99.90;;;;;;5073448;28;20210;-65
2022/11/22 00:49:55;;;;;;;0.53;0.53;;;10.20;99.90;;;;;;5072579;28;20228;-64
2022/11/22 00:52:22;;;;;;;0.70;0.70;;;10.20;99.90;;;;;;5075987;28;20219;-66
2022/11/22 00:54:49;;;;;;;0.53;0.53;;;10.20;99.90;;;;;;5073185;28;20219;-65
2022/11/22 00:57:16;;;;;;;0.50;0.50;;;10.20;99.90;;;;;;5073652;28;20213;-65
2022/11/22 00:59:43;;;;;;;0.80;0.80;;;10.20;99.90;;;;;;5073757;28;20199;-65
2022/11/22 01:02:09;;;;;;;0.80;0.80;;;10.20;99.90;;;;;;5064747;28;20569;-65
2022/11/22 01:04:38;;;;;;;1.07;0.90;;;10.20;99.90;;;;;;5072454;28;20203;-65
2022/11/22 01:07:05;;;;;;;0.70;0.70;;;10.20;99.90;;;;;;5072777;28;20238;-65
2022/11/22 01:09:31;;;;;;;1.07;1.07;;;10.20;99.90;;;;;;5073210;28;20204;-65
2022/11/22 01:11:58;;;;;;;0.80;0.80;;;10.20;99.90;;;;;;5074061;28;20204;-67
2022/11/22 01:14:25;;;;;;;1.00;0.80;;;10.30;99.90;;;;;;5072820;28;20697;-64
2022/11/22 01:16:52;;;;;;;0.80;0.80;;;10.20;99.90;;;;;;5073701;28;20286;-65
2022/11/22 01:19:19;;;;;;;1.10;1.00;;;10.30;99.90;;;;;;5074873;28;20654;-64
2022/11/22 01:21:47;;;;;;;0.90;0.90;;;10.30;99.90;;;;;;5073684;28;20234;-65
2022/11/22 01:24:14;;;;;;;0.70;0.70;;;10.20;99.90;;;;;;5075550;28;20219;-66
2022/11/22 01:26:41;;;;;;;1.10;1.10;;;10.30;99.90;;;;;;5073836;28;20252;-66
2022/11/22 01:29:08;;;;;;;1.13;0.77;;;10.20;99.90;;;;;;5073782;28;20631;-66
2022/11/22 01:31:35;;;;;;;1.60;0.90;;;10.30;99.90;;;;;;5073990;28;20199;-65
2022/11/22 01:34:04;;;;;;;0.90;0.90;;;10.20;99.90;;;;;;5072306;28;20594;-66
2022/11/22 01:36:31;;;;;;;1.00;1.00;;;10.50;99.90;;;;;;5073559;28;20199;-65
2022/11/22 01:38:59;;;;;;;1.47;1.20;;;10.30;99.90;;;;;;5073032;28;20206;-65
2022/11/22 01:41:26;;;;;;;1.00;0.90;;;10.30;99.90;;;;;;5068979;28;20199;-66
2022/11/22 01:43:53;;;;;;;1.20;1.10;;;10.30;99.90;;;;;;5072375;28;20219;-65
2022/11/22 01:46:29;;;;;;;1.17;1.13;;;10.30;99.90;;;;;;5076886;28;20257;-67
2022/11/22 01:49:02;;;;;;;1.23;1.17;;;10.30;99.90;;;;;;5075315;28;20203;-64
2022/11/22 01:51:33;;;;;;;1.00;1.00;;;10.30;99.90;;;;;;5073966;28;20207;-66
2022/11/22 01:54:06;;;;;;;1.27;1.20;;;10.30;99.90;;;;;;5074432;28;20223;-66
2022/11/22 01:56:34;;;;;;;1.13;1.03;;;10.30;99.90;;;;;;5068872;28;20207;-65
2022/11/22 01:59:04;;;;;;;1.60;1.30;;;10.30;99.90;;;;;;5072060;28;20204;-65
2022/11/22 02:01:32;;;;;;;1.00;1.00;;;10.30;99.90;;;;;;5071724;28;20206;-66
2022/11/22 02:04:02;;;;;;;0.95;0.95;;;10.30;99.90;;;;;;5070362;28;20219;-66
2022/11/22 02:06:40;;;;;;;1.67;1.10;;;10.30;99.90;;;;;;5071474;28;20286;-66
2022/11/22 02:09:11;;;;;;;1.03;1.00;;;10.30;99.90;;;;;;5075584;28;20231;-66
2022/11/22 02:11:43;;;;;;;1.23;1.13;;;10.30;99.90;;;;;;5071581;28;20281;-65
2022/11/22 02:14:10;;;;;;;0.90;0.90;;;10.30;99.90;;;;;;5071526;28;20338;-66
2022/11/22 02:16:38;;;;;;;0.67;0.67;;;10.30;99.90;;;;;;5070327;28;20716;-66
2022/11/22 02:19:07;;;;;;;1.00;1.00;;;10.30;99.90;;;;;;5071345;28;20296;-64
2022/11/22 02:21:34;;;;;;;1.00;1.00;;;10.30;99.90;;;;;;5074077;28;20200;-64
2022/11/22 02:24:09;;;;;;;1.33;1.03;;;10.30;99.90;;;;;;5069812;28;20223;-65
2022/11/22 02:26:37;;;;;;;1.20;1.10;;;10.30;99.90;;;;;;5072180;28;20289;-64
2022/11/22 02:29:07;;;;;;;1.20;1.10;;;10.20;99.90;;;;;;5074066;28;20299;-66
2022/11/22 02:31:37;;;;;;;1.10;1.10;;;10.20;99.90;;;;;;5074184;28;20646;-65
2022/11/22 02:34:03;;;;;;;1.23;1.17;;;10.20;99.90;;;;;;5072802;28;20226;-65
2022/11/22 02:36:35;;;;;;;1.20;1.10;;;10.20;99.90;;;;;;5073438;28;20282;-65
2022/11/22 02:39:01;;;;;;;0.93;0.93;;;10.20;99.90;;;;;;5072817;28;20658;-64
2022/11/22 02:41:28;;;;;;;1.23;1.13;;;10.20;99.90;;;;;;5074454;28;20206;-64
2022/11/22 02:43:57;;;;;;;2.63;1.17;;;10.10;99.90;;;;;;5073306;28;20222;-64
2022/11/22 02:46:23;;;;;;;1.00;1.00;;;10.10;99.90;;;;;;5073418;28;20282;-66
2022/11/22 02:48:50;;;;;;;1.00;1.00;;;10.10;99.90;;;;;;5073561;28;20214;-65
2022/11/22 02:51:19;;;;;;;1.00;1.00;;;10.20;99.90;;;;;;5074092;28;20200;-66
2022/11/22 02:53:47;;;;;;;1.30;1.20;;;10.10;99.90;;;;;;5067668;28;20219;-65
2022/11/22 02:56:15;;;;;;;1.03;1.00;;;10.10;99.90;;;;;;5076213;28;20286;-64
2022/11/22 02:58:42;;;;;;;1.30;1.17;;;10.10;99.90;;;;;;5074266;28;20210;-65
2022/11/22 03:01:11;;;;;;;1.13;1.13;;;10.10;99.90;;;;;;5072822;28;20231;-64
2022/11/22 03:03:38;;;;;;;1.20;1.10;;;10.00;99.90;;;;;;5073955;28;20229;-64
2022/11/22 03:06:05;;;;;;;1.03;1.00;;;10.00;99.90;;;;;;5073202;28;20199;-65
2022/11/22 03:08:32;;;;;;;1.17;1.10;;;10.00;99.90;;;;;;5073675;28;20210;-64
2022/11/22 03:10:59;;;;;;;1.30;1.20;;;10.00;99.90;;;;;;5073432;28;20658;-65
2022/11/22 03:13:27;;;;;;;1.27;1.17;;;10.10;99.90;;;;;;5073948;28;20658;-64
2022/11/22 03:15:54;;;;;;;1.60;1.20;;;10.10;99.90;;;;;;5074061;28;20225;-66
2022/11/22 03:18:22;;;;;;;1.30;1.20;;;10.00;99.90;;;;;;5074230;28;20231;-66
2022/11/22 03:20:49;;;;;;;1.23;1.13;;;10.00;99.90;;;;;;5074165;28;20255;-66
2022/11/22 03:23:16;;;;;;;0.80;0.80;;;10.00;99.90;;;;;;5075599;28;20302;-65
2022/11/22 03:25:43;;;;;;;0.90;0.90;;;9.90;99.90;;;;;;5076493;28;20206;-65
2022/11/22 03:28:10;;;;;;;1.07;0.97;;;10.00;99.90;;;;;;5073865;28;20199;-64
2022/11/22 03:30:40;;;;;;;1.30;1.20;;;10.00;99.90;;;;;;5073400;28;20213;-64
2022/11/22 03:33:07;;;;;;;1.10;1.00;;;10.00;99.90;;;;;;5073112;28;20233;-65
2022/11/22 03:35:35;;;;;;;1.00;1.00;;;10.00;99.90;;;;;;5073269;28;20221;-65
2022/11/22 03:38:02;;;;;;;0.90;0.90;;;10.00;99.90;;;;;;5073944;28;20234;-65
2022/11/22 03:40:29;;;;;;;1.07;1.00;;;10.10;99.90;;;;;;5073929;28;20205;-66
2022/11/22 03:42:58;;;;;;;1.00;1.00;;;10.00;99.90;;;;;;5073412;28;20269;-65
2022/11/22 03:45:26;;;;;;;1.63;1.30;;;10.00;99.90;;;;;;5072760;28;20572;-64
2022/11/22 03:47:53;;;;;;;1.20;1.10;;;10.20;99.90;;;;;;5073625;28;20579;-66
2022/11/22 03:50:20;;;;;;;1.20;1.10;;;10.10;99.90;;;;;;5073435;28;20253;-64
2022/11/22 03:52:48;;;;;;;1.00;1.00;;;10.30;99.90;;;;;;5072653;28;20238;-66
2022/11/22 03:55:16;;;;;;;1.53;1.10;;;10.10;99.90;;;;;;5073206;28;20211;-65
2022/11/22 03:57:43;;;;;;;1.10;1.00;;;10.10;99.90;;;;;;5069701;28;20203;-65
2022/11/22 04:00:11;;;;;;;1.10;1.10;;;10.10;99.90;;;;;;5073764;28;20278;-65
2022/11/22 04:02:38;;;;;;;1.40;1.30;;;10.10;99.90;;;;;;5077694;28;20304;-66
2022/11/22 04:05:06;;;;;;;1.20;1.10;;;10.10;99.90;;;;;;5073794;28;20570;-65
2022/11/22 04:07:32;;;;;;;1.13;1.00;;;10.10;99.90;;;;;;5073281;28;20310;-66
2022/11/22 04:10:01;;;;;;;1.17;1.10;;;10.10;99.90;;;;;;5074982;28;20679;-64
2022/11/22 04:12:29;;;;;;;1.80;1.30;;;10.10;99.90;;;;;;5075339;28;20318;-65
2022/11/22 04:15:07;;;;;;;1.20;1.20;;;10.10;99.90;;;;;;5074904;28;20310;-64
2022/11/22 04:17:40;;;;;;;1.30;1.20;;;10.00;99.90;;;;;;5075467;28;20583;-65
2022/11/22 04:22:58;;;;;;;1.30;1.20;;;10.10;99.90;;;;;;5073910;28;20249;-64
2022/11/22 04:25:27;;;;;;;1.20;1.10;;;10.10;99.90;;;;;;5073103;28;20199;-67
2022/11/22 04:27:55;;;;;;;1.17;1.07;;;10.10;99.90;;;;;;5073723;28;20290;-65
2022/11/22 04:32:44;;;;;;;1.00;1.00;;;10.10;99.90;;;;;;5074235;28;20206;-65
2022/11/22 04:33:08;;;;;;;1.30;1.20;;;10.10;99.90;;;;;;5073738;28;20707;-64
2022/11/22 04:35:35;;;;;;;1.00;0.90;;;10.10;99.90;;;;;;5072184;28;20215;-65
2022/11/22 04:38:01;;;;;;;2.30;1.20;;;10.00;99.90;;;;;;5071876;28;20217;-64
2022/11/22 04:40:30;;;;;;;1.07;0.97;;;10.00;99.90;;;;;;5072490;28;20286;-65
2022/11/22 04:45:41;;;;;;;1.10;1.00;;;9.90;99.90;;;;;;5072091;28;20270;-64
2022/11/22 04:48:09;;;;;;;0.80;0.80;;;9.80;99.90;;;;;;5071496;28;20205;-66
2022/11/22 04:53:20;;;;;;;0.87;0.87;;;9.80;99.90;;;;;;5064677;28;20230;-64
2022/11/22 04:55:48;;;;;;;1.20;1.10;;;9.80;99.90;;;;;;5071102;28;20221;-65
2022/11/22 04:58:15;;;;;;;1.00;1.00;;;9.80;99.90;;;;;;5071857;28;20201;-65
2022/11/22 05:00:42;;;;;;;1.60;1.33;;;9.70;99.90;;;;;;5071839;28;20203;-66
2022/11/22 05:03:09;;;;;;;0.90;0.90;;;9.70;99.90;;;;;;5072302;28;20222;-65
2022/11/22 05:05:37;;;;;;;0.87;0.87;;;9.70;99.90;;;;;;5073881;28;20203;-65
2022/11/22 05:08:05;;;;;;;0.90;0.90;;;9.70;99.90;;;;;;5072843;28;20203;-66
2022/11/22 05:10:55;;;;;;;1.30;1.20;;;9.60;99.90;;;;;;5071912;28;20230;-65
2022/11/22 05:13:23;;;;;;;1.20;1.10;;;9.50;99.90;;;;;;5071746;28;20223;-66
2022/11/22 05:15:51;;;;;;;1.30;1.20;;;9.40;99.90;;;;;;5071279;28;20307;-65
2022/11/22 05:18:18;;;;;;;1.40;1.30;;;9.30;99.90;;;;;;5071737;28;20273;-65
2022/11/22 05:20:45;;;;;;;1.10;1.10;;;9.20;99.90;;;;;;5071512;28;20673;-65
2022/11/22 05:25:56;;;;;;;1.33;1.23;;;9.20;99.90;;;;;;5070841;28;20664;-65
2022/11/22 05:28:28;;;;;;;1.10;1.00;;;9.10;99.90;;;;;;5072008;28;20561;-65
2022/11/22 05:30:55;;;;;;;1.07;1.03;;;9.10;99.90;;;;;;5071505;28;20207;-65
2022/11/22 05:33:21;;;;;;;1.23;1.10;;;9.10;99.90;;;;;;5070976;28;20222;-65
2022/11/22 05:35:48;;;;;;;2.10;1.30;;;9.10;99.90;;;;;;5070398;28;20723;-64
2022/11/22 05:38:15;;;;;;;1.03;1.00;;;9.10;99.90;;;;;;5071825;28;20205;-66
2022/11/22 05:40:42;;;;;;;1.60;1.00;;;9.00;99.90;;;;;;5072008;28;20221;-64
2022/11/22 05:43:09;;;;;;;1.53;1.43;;;9.00;99.90;;;;;;5071256;28;20598;-66
2022/11/22 05:45:37;;;;;;;0.97;0.97;;;9.10;99.90;;;;;;5071508;28;20203;-66
2022/11/22 05:48:04;;;;;;;1.20;1.10;;;9.10;99.90;;;;;;5072875;28;20214;-65
2022/11/22 05:50:31;;;;;;;1.17;1.10;;;9.00;99.90;;;;;;5071148;28;20286;-65
2022/11/22 05:53:01;;;;;;;1.23;1.17;;;9.00;99.90;;;;;;5071062;28;20227;-66
2022/11/22 05:55:28;;;;;;;0.90;0.90;;;8.90;99.90;;;;;;5072572;28;20234;-65
2022/11/22 05:57:56;;;;;;;1.23;1.20;;;9.00;99.90;;;;;;5072165;28;20204;-65
2022/11/22 06:00:22;;;;;;;1.30;1.20;;;9.00;99.90;;;;;;5075526;28;20320;-65
2022/11/22 06:02:51;;;;;;;1.02;1.00;;;8.90;99.90;;;;;;5073814;28;20581;-64
2022/11/22 06:05:17;;;;;;;1.80;1.27;;;8.90;99.90;;;;;;5074241;28;20199;-65
2022/11/22 06:07:45;;;;;;;2.53;1.20;;;8.90;99.90;;;;;;5074508;28;20207;-65
2022/11/22 06:10:12;;;;;;;0.97;0.97;;;8.90;99.90;;;;;;5067045;28;20253;-64
2022/11/22 06:12:39;;;;;;;0.80;0.80;;;8.90;99.90;;;;;;5074642;28;20230;-66
2022/11/22 06:15:06;;;;;;;1.07;1.07;;;8.90;99.90;;;;;;5074519;28;20310;-66
2022/11/22 06:17:33;;;;;;;1.00;1.00;;;8.90;99.90;;;;;;5075695;28;20717;-65
2022/11/22 06:20:01;;;;;;;1.00;1.00;;;8.90;99.90;;;;;;5075568;28;20203;-65
2022/11/22 06:22:29;;;;;;;1.30;1.20;;;8.90;99.90;;;;;;5080594;28;20222;-65
2022/11/22 06:24:56;;;;;;;1.10;1.10;;;8.90;99.90;;;;;;5079952;28;20218;-65
2022/11/22 06:27:23;;;;;;;1.57;1.20;;;8.90;99.90;;;;;;5067130;28;20286;-65
2022/11/22 06:29:50;;;;;;;1.17;1.00;;;8.80;99.90;;;;;;5065774;28;20665;-65
2022/11/22 06:32:17;;;;;;;1.10;1.10;;;8.70;99.90;;;;;;5068821;28;20200;-66
2022/11/22 06:34:43;;;;;;;1.23;1.13;;;8.70;99.90;;;;;;5077417;28;20219;-66
2022/11/22 06:37:14;;;;;;;1.20;1.10;;;8.70;99.90;;;;;;5076202;28;20203;-64
2022/11/22 06:39:41;;;;;;;1.13;1.10;;;8.70;99.90;;;;;;5079077;28;20203;-65
2022/11/22 06:42:08;;;;;;;1.30;1.27;;;8.60;99.90;;;;;;5076800;28;20203;-66
2022/11/22 06:44:35;;;;;;;1.33;1.20;;;8.50;99.90;;;;;;5075020;28;20207;-64
2022/11/22 06:47:02;;;;;;;0.97;0.97;;;8.40;99.90;;;;;;5074168;28;20229;-65
2022/11/22 06:49:29;;;;;;;1.40;1.30;;;8.40;99.90;;;;;;5074364;28;20300;-64
2022/11/22 06:51:56;;;;;;;1.20;1.10;;;8.30;99.90;;;;;;5074199;28;20888;-64
2022/11/22 06:54:24;;;;;;;2.27;1.00;;;8.40;99.90;;;;;;5073141;28;20245;-65
2022/11/22 06:56:51;;;;;;;0.90;0.90;;;8.50;99.90;;;;;;5072829;28;20223;-65
2022/11/22 06:59:18;;;;;;;2.67;1.20;;;8.50;99.90;;;;;;5072968;28;20613;-65
2022/11/22 07:01:44;;;;;;;1.50;1.40;;;8.50;99.90;;;;;;5072919;28;20293;-65
2022/11/22 07:04:11;;;;;;;3.53;1.40;;;8.50;99.90;;;;;;5072864;28;20314;-65
2022/11/22 07:06:39;;;;;;;1.33;1.20;;;8.60;99.90;;;;;;5072414;28;20199;-65
2022/11/22 07:09:07;;;;;;;1.17;1.17;;;8.50;99.90;;;;;;5073155;28;21506;-64
2022/11/22 07:11:36;;;;;;;1.50;1.40;;;8.50;99.90;;;;;;5072667;28;20203;-65
2022/11/22 07:14:04;;;;;;;1.70;1.37;;;8.60;99.90;;;;;;5073243;28;20828;-64
2022/11/22 07:16:31;;;;;;;0.97;0.97;;;8.60;99.90;;;;;;5072369;28;20214;-65
2022/11/22 07:18:59;;;;;;;1.00;1.00;;;8.60;99.90;;;;;;5073039;28;20245;-65
2022/11/22 07:21:26;;;;;;;1.00;0.90;;;8.60;99.90;;;;;;5073138;28;20684;-65
2022/11/22 07:23:54;;;;;;;1.50;1.17;;;8.60;99.90;;;;;;5072809;28;21030;-65
2022/11/22 07:26:23;;;;;;;1.10;1.10;;;8.70;99.90;;;;;;5072353;28;20711;-65
2022/11/22 07:28:51;;;;;;;1.30;1.20;;;8.80;99.90;;;;;;5072936;28;20203;-65
2022/11/22 07:31:18;;;;;;;0.93;0.93;;;8.70;99.90;;;;;;5073725;28;20201;-64
2022/11/22 07:33:46;;;;;;;1.27;1.17;;;8.80;99.90;;;;;;5073148;28;20325;-64
2022/11/22 07:36:14;;;;;;;1.00;1.00;;;8.80;99.90;;;;;;5071755;28;20311;-65
2022/11/22 07:38:41;;;;;;;1.50;1.40;;;8.80;99.90;;;;;;5072849;28;20689;-65
2022/11/22 07:41:09;;;;;;;1.67;1.20;;;8.80;99.90;;;;;;5073481;28;20203;-65
2022/11/22 07:43:36;;;;;;;1.47;1.37;;;8.80;99.90;;;;;;5072087;28;20266;-65
2022/11/22 07:46:06;;;;;;;1.07;1.07;;;8.80;99.90;;;;;;5072363;28;20583;-64
2022/11/22 07:48:33;;;;;;;1.37;1.27;;;8.90;99.90;;;;;;5072537;28;20680;-64
2022/11/22 07:51:04;;;;;;;1.30;1.20;;;8.90;99.90;;;;;;5071668;28;20614;-63
2022/11/22 07:53:31;;;;;;;1.30;1.20;;;8.90;99.90;;;;;;5072356;28;20223;-64
2022/11/22 07:56:01;;;;;;;1.00;1.00;;;9.00;99.90;;;;;;5071297;28;20234;-65
2022/11/22 07:58:28;;;;;;;1.20;1.10;;;9.00;99.90;;;;;;5072083;28;20213;-64
2022/11/22 08:00:54;;;;;;;1.10;1.10;;;9.10;99.90;;;;;;5072434;28;20207;-65
2022/11/22 08:03:23;;;;;;;1.03;1.03;;;9.20;99.90;;;;;;5071788;28;20292;-64
2022/11/22 08:05:49;;;;;;;1.20;1.10;;;9.20;99.90;;;;;;5071321;28;20217;-65
2022/11/22 08:08:16;;;;;;;0.97;0.97;;;9.30;99.90;;;;;;5073026;28;20221;-64
2022/11/22 08:10:44;;;;;;;1.23;1.13;;;9.30;99.90;;;;;;5070891;28;20200;-64
2022/11/22 08:13:11;;;;;;;1.33;1.23;;;9.30;99.90;;;;;;5072594;28;20219;-65
2022/11/22 08:15:37;;;;;;;0.93;0.93;;;9.40;99.90;;;;;;5084578;28;20219;-65
2022/11/22 08:18:04;;;;;;;1.40;1.30;;;9.40;99.90;;;;;;5075654;28;20322;-63
2022/11/22 08:20:33;;;;;;;1.37;1.27;;;9.30;99.90;;;;;;5071924;28;20207;-66
2022/11/22 08:22:59;;;;;;;1.50;1.00;;;9.30;99.90;;;;;;5070513;28;20595;-64
2022/11/22 08:25:26;;;;;;;1.40;1.00;;;9.30;99.90;;;;;;5070969;28;20195;-63
2022/11/22 08:27:53;;;;;;;1.13;1.03;;;9.40;99.90;;;;;;5072220;28;20666;-65
2022/11/22 08:30:20;;;;;;;1.00;1.00;;;9.50;99.90;;;;;;5071367;28;20231;-65
2022/11/22 08:32:47;;;;;;;1.10;1.00;;;9.50;99.90;;;;;;5072919;28;20314;-62
2022/11/22 08:35:14;;;;;;;1.20;1.10;;;9.50;99.90;;;;;;5071358;28;20207;-63
2022/11/22 08:37:42;;;;;;;1.33;1.23;;;9.50;99.90;;;;;;5071641;28;20634;-63
2022/11/22 08:40:10;;;;;;;2.03;1.57;;;9.50;99.90;;;;;;5070542;28;20206;-64
2022/11/22 08:42:37;;;;;;;1.13;1.13;;;9.60;99.90;;;;;;5072501;28;20231;-62
2022/11/22 08:45:04;;;;;;;0.90;0.90;;;9.70;99.90;;;;;;5071577;28;20203;-65
2022/11/22 08:47:31;;;;;;;1.20;1.10;;;9.80;99.90;;;;;;5072364;28;20294;-64
2022/11/22 08:49:58;;;;;;;1.20;1.10;;;9.80;99.90;;;;;;5071916;28;20207;-65
2022/11/22 08:52:25;;;;;;;1.13;1.13;;;9.90;99.90;;;;;;5072925;28;20222;-64
2022/11/22 08:54:53;;;;;;;1.77;1.20;;;9.90;99.90;;;;;;5075038;28;20564;-64
2022/11/22 08:57:20;;;;;;;1.20;1.10;;;9.90;99.90;;;;;;5070996;28;20381;-65
2022/11/22 08:59:47;;;;;;;1.23;1.07;;;10.00;99.90;;;;;;5079052;22;20254;-62
2022/11/22 09:02:14;;;;;;;1.40;1.30;;;10.00;99.90;;;;;;5074157;28;20701;-63
2022/11/22 09:04:41;;;;;;;1.00;1.00;;;10.00;99.90;;;;;;5075263;28;20222;-63
2022/11/22 09:07:09;;;;;;;1.20;1.10;;;10.10;99.90;;;;;;5074689;28;20675;-63
2022/11/22 09:09:35;;;;;;;1.00;1.00;;;10.10;99.90;;;;;;5071100;28;20227;-64
2022/11/22 09:12:04;;;;;;;1.10;1.10;;;10.10;99.90;;;;;;5055351;28;20680;-64
2022/11/22 09:14:31;;;;;;;1.07;0.97;;;10.10;99.90;;;;;;5056808;28;20295;-62
2022/11/22 09:16:58;;;;;;;1.13;1.03;;;10.00;99.90;;;;;;5056046;28;20219;-62
2022/11/22 09:19:24;;;;;;;1.40;1.30;;;10.10;99.90;;;;;;5056750;28;20598;-64
2022/11/22 09:21:51;;;;;;;1.30;1.20;;;10.10;99.90;;;;;;5057206;28;20650;-65
2022/11/22 09:24:18;;;;;;;1.13;1.10;;;10.10;99.90;;;;;;5057328;28;20214;-64
2022/11/22 09:26:45;;;;;;;1.33;1.13;;;10.10;99.90;;;;;;5056159;28;20200;-64
2022/11/22 09:29:14;;;;;;;1.13;1.03;;;10.20;99.90;;;;;;5049296;28;20227;-63
2022/11/22 09:31:41;;;;;;;1.20;1.10;;;10.20;99.90;;;;;;5061079;28;20207;-64
2022/11/22 09:34:08;;;;;;;1.33;1.00;;;10.20;99.90;;;;;;5059866;28;20284;-64
2022/11/22 09:36:35;;;;;;;0.90;0.90;;;10.20;99.90;;;;;;5060522;28;20263;-65
2022/11/22 09:39:02;;;;;;;1.10;1.03;;;10.20;99.90;;;;;;5059713;28;20295;-64
2022/11/22 09:41:59;;;;;;;1.37;1.10;;;10.10;99.90;;;;;;5058651;28;20220;-63
2022/11/22 09:44:37;;;;;;;1.47;1.30;;;10.10;99.90;;;;;;5051987;28;20200;-64
2022/11/22 09:47:16;;;;;;;1.27;1.17;;;10.10;99.90;;;;;;5057752;28;20398;-63
2022/11/22 09:49:53;;;;;;;1.60;1.50;;;10.10;99.90;;;;;;5053790;28;20585;-62
2022/11/22 09:52:25;;;;;;;1.10;1.00;;;10.10;99.90;;;;;;5054826;28;20626;-65
2022/11/22 09:54:56;;;;;;;1.30;1.20;;;10.10;99.90;;;;;;5057897;28;20214;-63
2022/11/22 09:57:28;;;;;;;1.33;1.23;;;10.10;99.90;;;;;;5058615;28;20712;-62
2022/11/22 10:00:02;;;;;;;1.17;1.07;;;10.10;99.90;;;;;;5058462;28;20736;-63
2022/11/22 10:02:33;;;;;;;1.27;1.20;;;10.20;99.90;;;;;;5057985;28;20266;-65
2022/11/22 10:05:03;;;;;;;1.07;1.07;;;10.20;99.90;;;;;;5057703;28;20295;-63
2022/11/22 10:07:35;;;;;;;1.40;1.30;;;10.20;99.90;;;;;;5059244;28;20211;-64
2022/11/22 10:10:05;;;;;;;1.50;1.30;;;10.20;99.90;;;;;;5061084;28;20227;-64
2022/11/22 10:12:38;;;;;;;1.33;1.23;;;10.20;99.90;;;;;;5061500;28;20204;-62
2022/11/22 10:15:14;;;;;;;0.90;0.90;;;10.30;99.90;;;;;;5058130;28;20615;-64
2022/11/22 10:17:50;;;;;;;1.87;1.20;;;10.40;99.90;;;;;;5057784;28;20214;-64
2022/11/22 10:20:19;;;;;;;1.53;1.20;;;10.30;99.90;;;;;;5053899;28;20262;-64
2022/11/22 10:22:47;;;;;;;1.10;1.00;;;10.20;99.90;;;;;;5058818;28;20211;-63
2022/11/22 10:25:17;;;;;;;1.40;1.00;;;10.30;99.90;;;;;;5051978;28;20223;-62
2022/11/22 10:27:47;;;;;;;1.20;0.83;;;10.30;99.90;;;;;;5056818;28;20746;-64
2022/11/22 10:30:18;;;;;;;1.33;1.13;;;10.30;99.90;;;;;;5050902;28;20223;-63
2022/11/22 10:33:00;;;;;;;1.00;1.00;;;10.40;99.90;;;;;;5057775;28;20257;-65
2022/11/22 10:35:44;;;;;;;1.50;1.30;;;10.40;99.90;;;;;;5051517;28;20712;-64
2022/11/22 10:38:33;;;;;;;0.90;0.90;;;10.30;99.90;;;;;;5057283;28;20196;-65
2022/11/22 10:41:04;;;;;;;0.80;0.80;;;10.30;99.90;;;;;;5055523;28;20231;-63
2022/11/22 10:43:39;;;;;;;1.40;1.20;;;10.30;99.90;;;;;;5055568;28;20207;-64
2022/11/22 10:46:16;;;;;;;0.97;0.93;;;10.40;99.90;;;;;;5054021;28;20227;-65
2022/11/22 10:48:48;;;;;;;1.33;1.23;;;10.40;99.90;;;;;;5054635;28;20218;-65
2022/11/22 10:51:25;;;;;;;1.27;1.17;;;10.50;99.90;;;;;;5054509;28;20251;-65
2022/11/22 10:54:03;;;;;;;0.90;0.90;;;10.50;99.90;;;;;;5054144;28;20210;-64
2022/11/22 10:56:35;;;;;;;2.97;1.00;;;10.50;99.90;;;;;;5048065;28;20580;-64
2022/11/22 10:59:20;;;;;;;1.30;1.20;;;10.60;99.90;;;;;;5054764;28;20208;-65
2022/11/22 11:01:57;;;;;;;0.80;0.80;;;10.60;99.90;;;;;;5051072;28;20230;-64
2022/11/22 11:04:28;;;;;;;1.20;1.10;;;10.60;99.90;;;;;;5049356;28;20269;-64
2022/11/22 11:06:58;;;;;;;1.03;1.00;;;10.60;99.90;;;;;;5053515;28;20202;-65
2022/11/22 11:09:33;;;;;;;2.37;1.30;;;10.50;99.90;;;;;;5053884;28;20196;-64
2022/11/22 11:12:02;;;;;;;1.30;1.20;;;10.60;99.90;;;;;;5052671;28;20238;-64
2022/11/22 11:14:36;;;;;;;1.20;1.10;;;10.50;99.90;;;;;;5054548;28;20239;-65
2022/11/22 11:17:06;;;;;;;1.03;1.03;;;10.50;99.90;;;;;;5052956;28;20227;-64
2022/11/22 11:19:38;;;;;;;1.30;1.00;;;10.60;99.90;;;;;;5054982;28;20226;-66
2022/11/22 11:22:16;;;;;;;0.80;0.80;;;10.60;99.90;;;;;;5053910;28;20313;-65
2022/11/22 11:24:43;;;;;;;0.97;0.97;;;10.70;99.90;;;;;;5055088;28;20226;-64
2022/11/22 11:27:11;;;;;;;1.10;1.00;;;10.60;99.90;;;;;;5053792;28;20196;-65
2022/11/22 11:29:42;;;;;;;1.17;1.07;;;10.60;99.90;;;;;;5053714;28;20329;-65
2022/11/22 11:32:14;;;;;;;1.10;1.10;;;10.60;99.90;;;;;;5054564;28;20208;-66
2022/11/22 11:34:44;;;;;;;0.80;0.80;;;10.60;99.90;;;;;;5054032;28;20573;-66
2022/11/22 11:37:22;;;;;;;0.97;0.97;;;10.70;99.90;;;;;;5052871;28;20224;-65
2022/11/22 11:39:49;;;;;;;0.80;0.80;;;10.70;99.90;;;;;;5053427;28;20306;-65
2022/11/22 11:42:25;;;;;;;0.80;0.80;;;10.70;99.90;;;;;;5053615;28;20211;-65
2022/11/22 11:44:52;;;;;;;0.87;0.87;;;10.70;99.90;;;;;;5052657;28;20199;-64
2022/11/22 11:47:32;;;;;;;0.50;0.50;;;10.70;99.90;;;;;;5053433;28;20220;-65
2022/11/22 11:49:59;;;;;;;0.73;0.60;;;10.70;99.90;;;;;;5054474;28;20238;-63
2022/11/22 11:52:27;;;;;;;0.57;0.57;;;10.80;99.90;;;;;;5055140;28;20200;-65
2022/11/22 11:54:56;;;;;;;0.40;0.40;;;10.90;99.90;;;;;;5054812;28;20253;-64
2022/11/22 11:57:28;;;;;;;0.60;0.50;;;10.80;99.90;;;;;;5053136;28;20238;-63
2022/11/22 11:59:56;;;;;;;0.70;0.70;;;10.90;99.90;;;;;;5053150;28;20242;-63
2022/11/22 12:02:28;;;;;;;0.73;0.73;;;10.80;99.90;;;;;;5053242;28;20610;-64
2022/11/22 12:04:57;;;;;;;0.70;0.70;;;10.80;99.90;;;;;;5052078;28;20203;-63
2022/11/22 12:07:26;;;;;;;0.77;0.77;;;10.90;99.90;;;;;;5052881;28;20835;-65
2022/11/22 12:09:55;;;;;;;0.40;0.40;;;10.90;99.90;;;;;;5053358;28;20224;-64
2022/11/22 12:12:40;;;;;;;0.97;0.80;;;10.90;99.90;;;;;;5053013;28;20569;-66
2022/11/22 12:15:15;;;;;;;0.60;0.60;;;10.90;99.90;;;;;;5051952;28;20200;-66
2022/11/22 12:17:50;;;;;;;1.00;0.70;;;10.70;99.90;;;;;;5052756;28;20899;-63
2022/11/22 12:20:22;;;;;;;0.83;0.70;;;10.70;99.90;;;;;;5051908;28;20219;-66
2022/11/22 12:23:01;;;;;;;0.57;0.50;;;10.70;99.90;;;;;;5053409;28;20337;-67
2022/11/22 12:25:32;;;;;;;0.67;0.67;;;10.70;99.90;;;;;;5051757;28;20196;-63
2022/11/22 12:28:03;;;;;;;0.80;0.80;;;10.70;99.90;;;;;;5052717;28;20581;-63
2022/11/22 12:30:32;;;;;;;0.50;0.50;;;10.80;99.90;;;;;;5052443;28;20224;-66
2022/11/22 12:33:05;;;;;;;0.47;0.47;;;10.80;99.90;;;;;;5052479;28;20730;-64
2022/11/22 12:35:40;;;;;;;0.50;0.50;;;10.90;99.90;;;;;;5051502;28;20196;-65
2022/11/22 12:38:14;;;;;;;0.50;0.50;;;10.90;99.90;;;;;;5052583;28;20241;-65
2022/11/22 12:40:44;;;;;;;0.40;0.40;;;10.80;99.90;;;;;;5052257;28;20567;-65
2022/11/22 12:43:17;;;;;;;1.53;0.53;;;10.90;99.90;;;;;;5052538;28;20212;-64
2022/11/22 12:45:49;;;;;;;0.67;0.67;;;10.80;99.90;;;;;;5051704;28;20207;-64
2022/11/22 12:48:21;;;;;;;0.60;0.60;;;10.80;99.90;;;;;;5052257;28;20633;-65
2022/11/22 12:50:53;;;;;;;0.83;0.60;;;10.80;99.90;;;;;;5052033;28;20593;-63
2022/11/22 12:53:24;;;;;;;0.57;0.57;;;10.80;99.90;;;;;;5052524;28;20203;-66
2022/11/22 12:55:58;;;;;;;0.70;0.70;;;10.80;99.90;;;;;;5051282;28;20362;-66
2022/11/22 12:58:33;;;;;;;0.50;0.50;;;10.70;99.90;;;;;;5052661;28;20211;-65
2022/11/22 13:01:09;;;;;;;0.60;0.60;;;10.70;99.90;;;;;;5052557;28;20745;-63
2022/11/22 13:03:44;;;;;;;0.43;0.43;;;10.70;99.90;;;;;;5056702;28;20206;-63
2022/11/22 13:06:12;;;;;;;0.50;0.50;;;10.70;99.90;;;;;;5051277;28;20199;-66
2022/11/22 13:08:43;;;;;;;0.60;0.60;;;10.70;99.90;;;;;;5052170;28;20210;-63
2022/11/22 13:11:16;;;;;;;0.50;0.50;;;10.70;99.90;;;;;;5051717;28;20719;-65